Terminal Aerodrome Forecast
Issued by NWS Cleveland, OH

Home | Current Version | Previous Version | Graphics & Text | Print | Product List | Glossary On
Versions: 1 2 3 4 5 6 7 8 9 10 11 12 13 14 15 16 17 18 19 20 21 22 23 24 25 26
712
FTUS41 KCLE 102041 AAB
TAFCLE
TAF AMD
KCLE 102041Z 1021/1124 28015G25KT 3SM -SN SCT018 OVC025
      TEMPO 1021/1023 1SM -SN OVC018
     FM102300 28015G25KT 3SM -SHSN OVC025
      TEMPO 1100/1104 2SM -SHSN BR OVC012
     FM110900 31015KT 6SM -SHSN OVC030
     FM111500 30015KT P6SM BKN035
     FM112200 27010KT P6SM BKN035=

USA.gov is the U.S. government's official web portal to all federal, state and local government web resources and services.